Sky Ever — DSQX9 — position and weather

sailwx.info

Track history (hours):
 
Tides and Currents Weather Stations Pressure Air Temp Water Temp Dewpoint Dewpoint Depression Visibility Wind Speed Wind Dir Waves Ship Positions

Sky Ever

Last reported at 2016-Dec-06 05:33 UTC. Time now 2016-Dec-06 19:50 UTC.
Position N 35°22' E 139°42'.

Length 76 m; draft 3.6 m.

Type: Cargo ship. MMSI: 441751000.

Date/timePositionNaut miles runAvg speedWind from/ knotsBaromVisibWave heightAir tempDewpointWater temp
2016-Dec-06 05:33N 35°22' E 139°42'7 0.2
2016-Dec-05 00:27N 35°20' E 139°50'0 0.0
2016-Dec-04 23:16N 35°20' E 139°50'0 0.0
2016-Dec-04 22:33N 35°20' E 139°50'2 1.5
2016-Dec-04 21:31N 35°21' E 139°49'4 3.6
2016-Dec-04 20:31N 35°24' E 139°50'0 0.0
2016-Dec-04 19:34N 35°24' E 139°50'0 0.0
2016-Dec-04 18:34N 35°24' E 139°50'0 0.0
2016-Dec-04 17:34N 35°24' E 139°50'0 0.0
2016-Dec-04 16:33N 35°24' E 139°50'0 0.0
2016-Dec-04 15:33N 35°24' E 139°50'0 0.0
2016-Dec-04 14:34N 35°24' E 139°50'0 0.0
2016-Dec-04 13:24N 35°25' E 139°50'3 3.8
2016-Dec-04 12:34N 35°24' E 139°46'8 7.9
2016-Dec-04 11:33N 35°16' E 139°46'  
Track history (hours):
 
Tides and Currents Weather Stations Pressure Air Temp Water Temp Dewpoint Dewpoint Depression Visibility Wind Speed Wind Dir Waves Ship Positions

Sky Ever

Last reported at 2016-Dec-06 05:33 UTC. Time now 2016-Dec-06 19:50 UTC.
Position N 35°22' E 139°42'.

Length 76 m; draft 3.6 m.

Type: Cargo ship. MMSI: 441751000.

Date/timePositionNaut miles runAvg speedWind from/ knotsBaromVisibWave heightAir tempDewpointWater temp
2016-Dec-06 05:33N 35°22' E 139°42'7 0.2
2016-Dec-05 00:27N 35°20' E 139°50'0 0.0
2016-Dec-04 23:16N 35°20' E 139°50'0 0.0
2016-Dec-04 22:33N 35°20' E 139°50'2 1.5
2016-Dec-04 21:31N 35°21' E 139°49'4 3.6
2016-Dec-04 20:31N 35°24' E 139°50'0 0.0
2016-Dec-04 19:34N 35°24' E 139°50'0 0.0
2016-Dec-04 18:34N 35°24' E 139°50'0 0.0
2016-Dec-04 17:34N 35°24' E 139°50'0 0.0
2016-Dec-04 16:33N 35°24' E 139°50'0 0.0
2016-Dec-04 15:33N 35°24' E 139°50'0 0.0
2016-Dec-04 14:34N 35°24' E 139°50'0 0.0
2016-Dec-04 13:24N 35°25' E 139°50'3 3.8
2016-Dec-04 12:34N 35°24' E 139°46'8 7.9
2016-Dec-04 11:33N 35°16' E 139°46'  

Dump ship's entire track history